SWA2203 KFLL-KCMH
Flight info
| Callsign | SWA2203 |
|---|---|
| Flight time | N/A |
| Altitude | 37000 |
| Route | AGERS1 DUCEN Q87 VIYAP OLBEC Q69 GURGE/N0456F380 Q93 FISHO/N0454F370 Q93 QUIWE/N0455F380 BURGG/N0453F370 MCGNS SCRLT2 |
| Aircraft | B738/M-SADE2E3GIJ4RWZ/LB1D1 |
Departure
| Time | 2026-05-04 14:38 |
|---|---|
| Airport | Fort Lauderdale Hollywood International Airport (KFLL) |
Arrival
| Time | N/A |
|---|---|
| Airport | John Glenn Columbus International Airport (KCMH) |
| Time | Latitude | Longitude | Altitude | Speed | Heading |
|---|---|---|---|---|---|
| 2026-05-04 14:22 | 26.07416 | -80.14044 | 17 ft | 0 kts | 205° |
| 2026-05-04 14:27 | 26.07424 | -80.14040 | 16 ft | 3 kts | 205° |
| 2026-05-04 14:27 | 26.07441 | -80.14031 | 16 ft | 2 kts | 205° |
| 2026-05-04 14:27 | 26.07457 | -80.14023 | 16 ft | 3 kts | 186° |
| 2026-05-04 14:27 | 26.07474 | -80.14025 | 18 ft | 3 kts | 138° |
| 2026-05-04 14:28 | 26.07483 | -80.14041 | 15 ft | 3 kts | 99° |
| 2026-05-04 14:28 | 26.07485 | -80.14063 | 16 ft | 2 kts | 90° |
| 2026-05-04 14:28 | 26.07485 | -80.14075 | 15 ft | 2 kts | 90° |
| 2026-05-04 14:28 | 26.07485 | -80.14092 | 15 ft | 1 kts | 90° |
| 2026-05-04 14:29 | 26.07485 | -80.14093 | 15 ft | 0 kts | 90° |
| 2026-05-04 14:31 | 26.07485 | -80.14087 | 15 ft | 4 kts | 90° |
| 2026-05-04 14:31 | 26.07533 | -80.13996 | 15 ft | 8 kts | 335° |
| 2026-05-04 14:32 | 26.07556 | -80.14112 | 16 ft | 8 kts | 270° |
| 2026-05-04 14:32 | 26.07557 | -80.14181 | 16 ft | 11 kts | 271° |
| 2026-05-04 14:32 | 26.07558 | -80.14274 | 16 ft | 13 kts | 270° |
| 2026-05-04 14:32 | 26.07559 | -80.14417 | 16 ft | 23 kts | 270° |
| 2026-05-04 14:33 | 26.07560 | -80.14599 | 16 ft | 23 kts | 270° |
| 2026-05-04 14:33 | 26.07561 | -80.14774 | 16 ft | 22 kts | 270° |
| 2026-05-04 14:33 | 26.07562 | -80.14942 | 15 ft | 21 kts | 270° |
| 2026-05-04 14:33 | 26.07563 | -80.15115 | 15 ft | 22 kts | 270° |
| 2026-05-04 14:34 | 26.07563 | -80.15284 | 15 ft | 21 kts | 270° |
| 2026-05-04 14:34 | 26.07558 | -80.15434 | 15 ft | 16 kts | 243° |
| 2026-05-04 14:34 | 26.07489 | -80.15521 | 15 ft | 16 kts | 266° |
| 2026-05-04 14:34 | 26.07493 | -80.15652 | 15 ft | 18 kts | 270° |
| 2026-05-04 14:35 | 26.07493 | -80.15801 | 15 ft | 21 kts | 271° |
| 2026-05-04 14:35 | 26.07494 | -80.15968 | 15 ft | 22 kts | 270° |
| 2026-05-04 14:35 | 26.07495 | -80.16137 | 15 ft | 22 kts | 269° |
| 2026-05-04 14:35 | 26.07496 | -80.16302 | 15 ft | 21 kts | 271° |
| 2026-05-04 14:36 | 26.07498 | -80.16461 | 15 ft | 20 kts | 270° |
| 2026-05-04 14:36 | 26.07498 | -80.16605 | 15 ft | 14 kts | 280° |
| 2026-05-04 14:36 | 26.07576 | -80.16643 | 15 ft | 13 kts | 359° |
| 2026-05-04 14:36 | 26.07663 | -80.16644 | 17 ft | 9 kts | 359° |
| 2026-05-04 14:37 | 26.07694 | -80.16619 | 17 ft | 6 kts | 80° |
| 2026-05-04 14:37 | 26.07695 | -80.16608 | 19 ft | 2 kts | 88° |
| 2026-05-04 14:37 | 26.07694 | -80.16368 | 19 ft | 69 kts | 90° |
| 2026-05-04 14:37 | 26.07687 | -80.15554 | 14 ft | 139 kts | 91° |
| 2026-05-04 14:38 | 26.07666 | -80.14362 | 486 ft | 155 kts | 87° |
| 2026-05-04 14:38 | 26.07653 | -80.13139 | 1302 ft | 159 kts | 83° |
| 2026-05-04 14:38 | 26.07654 | -80.11892 | 2075 ft | 170 kts | 83° |
| 2026-05-04 14:38 | 26.07686 | -80.10551 | 2777 ft | 176 kts | 78° |
| 2026-05-04 14:39 | 26.08049 | -80.09265 | 3401 ft | 182 kts | 62° |
| 2026-05-04 14:39 | 26.08775 | -80.08033 | 3640 ft | 199 kts | 42° |
| 2026-05-04 14:39 | 26.09834 | -80.06950 | 3888 ft | 214 kts | 30° |
| 2026-05-04 14:40 | 26.12791 | -80.05623 | 4378 ft | 250 kts | 18° |
| 2026-05-04 14:40 | 26.14485 | -80.04958 | 4671 ft | 264 kts | 12° |
| 2026-05-04 14:40 | 26.16303 | -80.04919 | 5285 ft | 263 kts | 345° |
| 2026-05-04 14:40 | 26.18050 | -80.05500 | 6083 ft | 262 kts | 338° |
| 2026-05-04 14:41 | 26.19798 | -80.06194 | 6728 ft | 268 kts | 337° |
| 2026-05-04 14:41 | 26.21511 | -80.07004 | 7476 ft | 267 kts | 323° |
| 2026-05-04 14:41 | 26.23588 | -80.10357 | 8985 ft | 268 kts | 290° |
| 2026-05-04 14:42 | 26.24944 | -80.14306 | 10393 ft | 283 kts | 291° |
| 2026-05-04 14:42 | 26.26147 | -80.16167 | 10547 ft | 315 kts | 318° |
| 2026-05-04 14:42 | 26.28096 | -80.17480 | 10765 ft | 339 kts | 330° |
| 2026-05-04 14:43 | 26.30253 | -80.18656 | 11251 ft | 350 kts | 330° |
| 2026-05-04 14:43 | 26.32444 | -80.19846 | 12019 ft | 350 kts | 329° |
| 2026-05-04 14:43 | 26.34627 | -80.21056 | 12825 ft | 351 kts | 328° |
| 2026-05-04 14:43 | 26.36816 | -80.22277 | 13586 ft | 354 kts | 329° |
| 2026-05-04 14:44 | 26.39221 | -80.23054 | 14254 ft | 370 kts | 347° |
| 2026-05-04 14:44 | 26.41803 | -80.23302 | 14912 ft | 375 kts | 349° |
| 2026-05-04 14:44 | 26.44421 | -80.23525 | 15532 ft | 380 kts | 349° |
| 2026-05-04 14:44 | 26.47072 | -80.23763 | 16152 ft | 384 kts | 348° |
| 2026-05-04 14:45 | 26.49752 | -80.24021 | 16764 ft | 389 kts | 348° |
| 2026-05-04 14:45 | 26.52457 | -80.24295 | 17400 ft | 393 kts | 348° |
| 2026-05-04 14:45 | 26.55188 | -80.24577 | 18075 ft | 396 kts | 348° |
| 2026-05-04 14:45 | 26.57934 | -80.24906 | 18663 ft | 397 kts | 345° |
| 2026-05-04 14:46 | 26.60669 | -80.25363 | 19220 ft | 398 kts | 344° |
| 2026-05-04 14:46 | 26.63411 | -80.25856 | 19779 ft | 400 kts | 344° |
| 2026-05-04 14:46 | 26.66173 | -80.26339 | 20341 ft | 403 kts | 344° |
| 2026-05-04 14:46 | 26.68956 | -80.26810 | 20882 ft | 405 kts | 345° |
| 2026-05-04 14:47 | 26.71719 | -80.27385 | 21418 ft | 402 kts | 337° |
| 2026-05-04 14:47 | 26.74348 | -80.28409 | 21942 ft | 399 kts | 332° |
| 2026-05-04 14:47 | 26.76933 | -80.29555 | 22469 ft | 401 kts | 332° |
| 2026-05-04 14:47 | 26.79535 | -80.30719 | 22975 ft | 404 kts | 332° |
| 2026-05-04 14:48 | 26.82162 | -80.31868 | 23473 ft | 407 kts | 333° |
| 2026-05-04 14:48 | 26.84816 | -80.33001 | 23931 ft | 409 kts | 333° |
| 2026-05-04 14:48 | 26.87485 | -80.34124 | 24384 ft | 410 kts | 333° |
| 2026-05-04 14:48 | 26.90163 | -80.35243 | 24814 ft | 412 kts | 333° |
| 2026-05-04 14:49 | 26.92854 | -80.36369 | 25209 ft | 414 kts | 333° |
| 2026-05-04 14:49 | 26.94642 | -80.37116 | 25463 ft | 416 kts | 333° |
| 2026-05-04 14:49 | 26.97371 | -80.38227 | 25858 ft | 418 kts | 333° |
| 2026-05-04 14:49 | 27.00115 | -80.39326 | 26262 ft | 420 kts | 333° |
| 2026-05-04 14:50 | 27.02873 | -80.40429 | 26656 ft | 422 kts | 333° |
| 2026-05-04 14:50 | 27.05647 | -80.41544 | 27036 ft | 424 kts | 333° |
| 2026-05-04 14:50 | 27.08426 | -80.42666 | 27410 ft | 426 kts | 333° |
| 2026-05-04 14:50 | 27.11209 | -80.43822 | 27766 ft | 427 kts | 332° |
| 2026-05-04 14:51 | 27.13979 | -80.45038 | 28136 ft | 428 kts | 331° |
| 2026-05-04 14:51 | 27.16752 | -80.46279 | 28497 ft | 430 kts | 331° |
| 2026-05-04 14:51 | 27.19542 | -80.47530 | 28819 ft | 433 kts | 331° |
| 2026-05-04 14:51 | 27.22349 | -80.48782 | 29155 ft | 435 kts | 331° |
| 2026-05-04 14:52 | 27.25168 | -80.50033 | 29509 ft | 437 kts | 331° |
| 2026-05-04 14:52 | 27.28002 | -80.51288 | 29839 ft | 439 kts | 331° |
| 2026-05-04 14:52 | 27.30844 | -80.52544 | 30204 ft | 439 kts | 331° |
| 2026-05-04 14:52 | 27.33680 | -80.53797 | 30631 ft | 437 kts | 331° |
| 2026-05-04 14:53 | 27.36489 | -80.55038 | 31164 ft | 431 kts | 331° |
| 2026-05-04 14:53 | 27.39289 | -80.56230 | 31638 ft | 430 kts | 332° |
| 2026-05-04 14:53 | 27.42106 | -80.57358 | 32006 ft | 430 kts | 333° |
| 2026-05-04 14:53 | 27.44932 | -80.58462 | 32347 ft | 430 kts | 333° |
| 2026-05-04 14:54 | 27.47716 | -80.59544 | 32725 ft | 429 kts | 333° |
| 2026-05-04 14:54 | 27.50528 | -80.60640 | 33151 ft | 426 kts | 333° |
| 2026-05-04 14:54 | 27.53321 | -80.61736 | 33569 ft | 424 kts | 333° |
| 2026-05-04 14:54 | 27.56103 | -80.62835 | 33940 ft | 423 kts | 333° |
| 2026-05-04 14:55 | 27.58875 | -80.63936 | 34270 ft | 422 kts | 333° |
| 2026-05-04 14:55 | 27.61645 | -80.65039 | 34534 ft | 423 kts | 332° |
| 2026-05-04 14:55 | 27.64422 | -80.66148 | 34765 ft | 424 kts | 332° |
| 2026-05-04 14:55 | 27.67203 | -80.67259 | 35022 ft | 424 kts | 332° |
| 2026-05-04 14:56 | 27.69986 | -80.68371 | 35299 ft | 424 kts | 332° |
| 2026-05-04 14:56 | 27.72769 | -80.69482 | 35567 ft | 424 kts | 332° |
| 2026-05-04 14:56 | 27.75554 | -80.70596 | 35837 ft | 425 kts | 332° |
| 2026-05-04 14:56 | 27.78346 | -80.71713 | 36067 ft | 426 kts | 332° |
| 2026-05-04 14:57 | 27.81142 | -80.72832 | 36289 ft | 427 kts | 332° |
| 2026-05-04 14:57 | 27.83946 | -80.73954 | 36509 ft | 428 kts | 332° |
| 2026-05-04 14:57 | 27.86754 | -80.75078 | 36775 ft | 428 kts | 332° |
| 2026-05-04 14:57 | 27.89559 | -80.76202 | 37025 ft | 428 kts | 332° |
| 2026-05-04 14:58 | 27.95209 | -80.78470 | 37108 ft | 433 kts | 332° |
| 2026-05-04 14:58 | 28.00884 | -80.80746 | 37105 ft | 430 kts | 332° |
| 2026-05-04 14:59 | 28.06490 | -80.82993 | 37166 ft | 426 kts | 332° |
| 2026-05-04 15:00 | 28.14864 | -80.86365 | 37105 ft | 425 kts | 332° |
| 2026-05-04 15:00 | 28.20434 | -80.88610 | 37107 ft | 424 kts | 332° |
| 2026-05-04 15:01 | 28.28775 | -80.91977 | 37123 ft | 424 kts | 332° |
| 2026-05-04 15:01 | 28.34331 | -80.94223 | 37119 ft | 424 kts | 332° |
| 2026-05-04 15:02 | 28.39893 | -80.96474 | 37130 ft | 425 kts | 332° |
| 2026-05-04 15:02 | 28.45466 | -80.98732 | 37122 ft | 426 kts | 332° |
| 2026-05-04 15:03 | 28.51042 | -81.00992 | 37125 ft | 425 kts | 333° |
| 2026-05-04 15:03 | 28.56619 | -81.03256 | 37126 ft | 425 kts | 332° |
| 2026-05-04 15:04 | 28.62198 | -81.05523 | 37114 ft | 426 kts | 332° |
| 2026-05-04 15:04 | 28.67731 | -81.07774 | 37175 ft | 425 kts | 332° |
| 2026-05-04 15:05 | 28.73307 | -81.10045 | 37141 ft | 425 kts | 332° |
| 2026-05-04 15:05 | 28.78871 | -81.12314 | 37124 ft | 424 kts | 332° |
| 2026-05-04 15:06 | 28.84418 | -81.14578 | 37134 ft | 423 kts | 332° |
| 2026-05-04 15:07 | 28.92708 | -81.17968 | 37138 ft | 421 kts | 332° |
| 2026-05-04 15:07 | 28.98226 | -81.20227 | 37183 ft | 421 kts | 332° |
| 2026-05-04 15:08 | 29.03747 | -81.22491 | 37163 ft | 421 kts | 332° |
| 2026-05-04 15:08 | 29.09263 | -81.24755 | 37157 ft | 421 kts | 332° |
| 2026-05-04 15:09 | 29.14778 | -81.27020 | 37157 ft | 421 kts | 332° |
| 2026-05-04 15:09 | 29.20288 | -81.29287 | 37153 ft | 421 kts | 332° |
| 2026-05-04 15:10 | 29.28652 | -81.32469 | 37124 ft | 435 kts | 345° |
| 2026-05-04 15:11 | 29.37820 | -81.32930 | 37152 ft | 439 kts | 348° |
| 2026-05-04 15:11 | 29.43919 | -81.33260 | 37152 ft | 438 kts | 348° |
| 2026-05-04 15:12 | 29.50009 | -81.33617 | 37156 ft | 438 kts | 348° |
| 2026-05-04 15:12 | 29.56093 | -81.33980 | 37185 ft | 438 kts | 347° |
| 2026-05-04 15:13 | 29.62171 | -81.34341 | 37151 ft | 436 kts | 347° |
| 2026-05-04 15:13 | 29.68227 | -81.34699 | 37147 ft | 435 kts | 347° |
| 2026-05-04 15:14 | 29.74263 | -81.35058 | 37159 ft | 434 kts | 347° |
| 2026-05-04 15:14 | 29.80288 | -81.35416 | 37160 ft | 433 kts | 347° |
| 2026-05-04 15:15 | 29.86304 | -81.35775 | 37169 ft | 433 kts | 347° |
| 2026-05-04 15:15 | 29.92313 | -81.36133 | 37172 ft | 432 kts | 347° |
| 2026-05-04 15:16 | 30.01305 | -81.36670 | 37169 ft | 431 kts | 347° |
| 2026-05-04 15:17 | 30.10274 | -81.37206 | 37160 ft | 430 kts | 347° |
| 2026-05-04 15:17 | 30.19243 | -81.37738 | 37167 ft | 430 kts | 347° |
| 2026-05-04 15:18 | 30.25224 | -81.38087 | 37152 ft | 430 kts | 347° |
| 2026-05-04 15:19 | 30.34185 | -81.38611 | 37159 ft | 430 kts | 347° |
| 2026-05-04 15:19 | 30.43136 | -81.39137 | 37157 ft | 429 kts | 347° |
| 2026-05-04 15:20 | 30.49103 | -81.39480 | 37151 ft | 429 kts | 347° |
| 2026-05-04 15:20 | 30.55033 | -81.39798 | 37162 ft | 430 kts | 347° |
| 2026-05-04 15:21 | 30.61009 | -81.40116 | 37163 ft | 430 kts | 347° |
| 2026-05-04 15:22 | 30.69979 | -81.40598 | 37184 ft | 431 kts | 347° |
| 2026-05-04 15:22 | 30.78971 | -81.41085 | 37158 ft | 431 kts | 347° |
| 2026-05-04 15:23 | 30.84966 | -81.41409 | 37160 ft | 431 kts | 347° |
| 2026-05-04 15:23 | 30.90965 | -81.41735 | 37156 ft | 431 kts | 347° |
| 2026-05-04 15:24 | 31.02966 | -81.42387 | 37160 ft | 432 kts | 347° |
| 2026-05-04 15:25 | 31.08974 | -81.42714 | 37147 ft | 432 kts | 347° |
| 2026-05-04 15:26 | 31.17984 | -81.43206 | 37146 ft | 432 kts | 347° |
| 2026-05-04 15:26 | 31.26994 | -81.43676 | 37179 ft | 434 kts | 349° |
| 2026-05-04 15:27 | 31.36098 | -81.43711 | 37152 ft | 436 kts | 350° |
| 2026-05-04 15:28 | 31.45199 | -81.43756 | 37155 ft | 439 kts | 352° |
| 2026-05-04 15:28 | 31.51336 | -81.42423 | 37192 ft | 461 kts | 9° |
| 2026-05-04 15:29 | 31.54368 | -81.41173 | 37172 ft | 463 kts | 10° |
| 2026-05-04 15:30 | 31.75601 | -81.32270 | 37147 ft | 464 kts | 10° |
| 2026-05-04 15:31 | 31.84745 | -81.28493 | 37135 ft | 465 kts | 10° |
| 2026-05-04 15:32 | 32.00098 | -81.23369 | 37125 ft | 444 kts | 353° |
| 2026-05-04 15:34 | 32.15587 | -81.22780 | 37161 ft | 447 kts | 354° |
| 2026-05-04 15:34 | 32.24935 | -81.22333 | 37155 ft | 448 kts | 354° |
| 2026-05-04 15:35 | 32.34293 | -81.21881 | 37165 ft | 450 kts | 354° |
| 2026-05-04 15:36 | 32.42619 | -81.21479 | 37142 ft | 450 kts | 354° |
| 2026-05-04 15:36 | 32.49849 | -81.21472 | 37135 ft | 439 kts | 343° |
| 2026-05-04 15:37 | 32.55768 | -81.22928 | 37137 ft | 434 kts | 340° |
| 2026-05-04 15:37 | 32.60709 | -81.24224 | 37166 ft | 435 kts | 340° |
| 2026-05-04 15:38 | 32.66632 | -81.25743 | 37146 ft | 436 kts | 340° |
| 2026-05-04 15:38 | 32.72529 | -81.27226 | 37133 ft | 436 kts | 341° |
| 2026-05-04 15:39 | 32.78470 | -81.28712 | 37147 ft | 436 kts | 340° |
| 2026-05-04 15:40 | 32.87371 | -81.30944 | 37154 ft | 436 kts | 341° |
| 2026-05-04 15:40 | 32.93306 | -81.32436 | 37144 ft | 436 kts | 341° |
| 2026-05-04 15:41 | 32.99248 | -81.33932 | 37137 ft | 436 kts | 341° |
| 2026-05-04 15:41 | 33.05192 | -81.35431 | 37140 ft | 437 kts | 340° |
| 2026-05-04 15:42 | 33.11138 | -81.36931 | 37147 ft | 437 kts | 341° |
| 2026-05-04 15:42 | 33.17085 | -81.38435 | 37150 ft | 437 kts | 341° |
| 2026-05-04 15:43 | 33.23033 | -81.39940 | 37146 ft | 437 kts | 340° |
| 2026-05-04 15:43 | 33.28994 | -81.41404 | 37144 ft | 440 kts | 343° |
| 2026-05-04 15:44 | 33.35097 | -81.42289 | 37149 ft | 443 kts | 347° |
| 2026-05-04 15:44 | 33.41239 | -81.43015 | 37157 ft | 444 kts | 347° |
| 2026-05-04 15:45 | 33.47379 | -81.43785 | 37145 ft | 444 kts | 346° |
| 2026-05-04 15:45 | 33.53518 | -81.44596 | 37130 ft | 444 kts | 346° |
| 2026-05-04 15:46 | 33.59660 | -81.45420 | 37121 ft | 444 kts | 346° |
| 2026-05-04 15:46 | 33.65810 | -81.46245 | 37121 ft | 445 kts | 346° |
| 2026-05-04 15:47 | 33.71962 | -81.47071 | 37126 ft | 445 kts | 346° |
| 2026-05-04 15:47 | 33.78071 | -81.47892 | 37117 ft | 445 kts | 346° |
| 2026-05-04 15:48 | 33.84221 | -81.48719 | 37117 ft | 445 kts | 346° |
| 2026-05-04 15:48 | 33.93433 | -81.49962 | 37151 ft | 444 kts | 346° |
| 2026-05-04 15:49 | 33.99339 | -81.51666 | 37128 ft | 433 kts | 335° |
| 2026-05-04 15:49 | 34.05047 | -81.53948 | 37117 ft | 432 kts | 335° |
| 2026-05-04 15:50 | 34.10754 | -81.56223 | 37126 ft | 432 kts | 335° |
| 2026-05-04 15:50 | 34.16467 | -81.58467 | 37150 ft | 432 kts | 335° |
| 2026-05-04 15:51 | 34.22187 | -81.60701 | 37168 ft | 432 kts | 335° |
| 2026-05-04 15:51 | 34.27906 | -81.62934 | 37159 ft | 432 kts | 335° |
| 2026-05-04 15:52 | 34.33617 | -81.65168 | 37153 ft | 431 kts | 335° |
| 2026-05-04 15:52 | 34.39316 | -81.67401 | 37155 ft | 430 kts | 335° |
| 2026-05-04 15:53 | 34.45008 | -81.69635 | 37147 ft | 430 kts | 335° |
| 2026-05-04 15:53 | 34.50703 | -81.71873 | 37131 ft | 430 kts | 335° |
| 2026-05-04 15:54 | 34.56391 | -81.74111 | 37123 ft | 430 kts | 335° |
| 2026-05-04 15:54 | 34.62071 | -81.76350 | 37127 ft | 429 kts | 335° |
| 2026-05-04 15:55 | 34.67750 | -81.78592 | 37122 ft | 429 kts | 335° |
| 2026-05-04 15:55 | 34.73427 | -81.80836 | 37149 ft | 429 kts | 335° |
| 2026-05-04 15:56 | 34.79101 | -81.83082 | 37122 ft | 429 kts | 335° |
| 2026-05-04 15:56 | 34.84776 | -81.85332 | 37118 ft | 428 kts | 335° |
| 2026-05-04 15:57 | 34.90440 | -81.87580 | 37117 ft | 428 kts | 335° |
| 2026-05-04 15:57 | 34.96097 | -81.89830 | 37119 ft | 427 kts | 335° |
| 2026-05-04 15:58 | 35.01720 | -81.92053 | 37123 ft | 429 kts | 337° |
| 2026-05-04 15:58 | 35.07699 | -81.93113 | 37124 ft | 440 kts | 350° |
| 2026-05-04 15:59 | 35.13822 | -81.93453 | 37105 ft | 440 kts | 350° |
| 2026-05-04 15:59 | 35.19942 | -81.93793 | 37108 ft | 440 kts | 350° |
| 2026-05-04 16:00 | 35.26051 | -81.94166 | 37137 ft | 440 kts | 349° |
| 2026-05-04 16:00 | 35.32163 | -81.94558 | 37142 ft | 439 kts | 349° |
| 2026-05-04 16:01 | 35.38268 | -81.94955 | 37139 ft | 439 kts | 349° |
| 2026-05-04 16:01 | 35.44371 | -81.95352 | 37138 ft | 439 kts | 349° |
| 2026-05-04 16:02 | 35.50474 | -81.95748 | 37158 ft | 439 kts | 349° |
| 2026-05-04 16:03 | 35.59604 | -81.96343 | 37122 ft | 439 kts | 349° |
| 2026-05-04 16:03 | 35.65653 | -81.96737 | 37117 ft | 438 kts | 349° |
| 2026-05-04 16:04 | 35.71733 | -81.97135 | 37114 ft | 437 kts | 349° |
| 2026-05-04 16:04 | 35.80836 | -81.97729 | 37104 ft | 437 kts | 349° |
| 2026-05-04 16:05 | 35.86910 | -81.98128 | 37096 ft | 437 kts | 349° |
| 2026-05-04 16:06 | 35.96033 | -81.98728 | 37099 ft | 438 kts | 349° |
| 2026-05-04 16:07 | 36.08208 | -81.99530 | 37116 ft | 438 kts | 350° |
| 2026-05-04 16:08 | 36.20356 | -82.00332 | 37094 ft | 437 kts | 349° |
| 2026-05-04 16:09 | 36.35514 | -82.01333 | 37113 ft | 436 kts | 349° |
| 2026-05-04 16:10 | 36.47608 | -82.02141 | 37100 ft | 435 kts | 349° |
| 2026-05-04 16:11 | 36.59697 | -82.02946 | 37119 ft | 435 kts | 349° |
| 2026-05-04 16:12 | 36.77679 | -82.04151 | 37123 ft | 429 kts | 349° |
| 2026-05-04 16:13 | 36.89570 | -82.04953 | 37108 ft | 428 kts | 349° |
| 2026-05-04 16:14 | 37.01440 | -82.05756 | 37108 ft | 430 kts | 349° |
| 2026-05-04 16:16 | 37.16441 | -82.06772 | 37091 ft | 433 kts | 349° |
| 2026-05-04 16:17 | 37.31528 | -82.07797 | 37080 ft | 435 kts | 349° |
| 2026-05-04 16:18 | 37.43600 | -82.08619 | 37069 ft | 433 kts | 349° |
| 2026-05-04 16:19 | 37.58591 | -82.09644 | 37051 ft | 430 kts | 350° |
| 2026-05-04 16:20 | 37.73485 | -82.10672 | 37055 ft | 428 kts | 351° |
| 2026-05-04 16:22 | 37.88307 | -82.11693 | 37031 ft | 426 kts | 351° |
| 2026-05-04 16:23 | 38.06070 | -82.12926 | 37008 ft | 426 kts | 351° |
| 2026-05-04 16:24 | 38.17884 | -82.13750 | 36712 ft | 430 kts | 351° |
| 2026-05-04 16:25 | 38.23832 | -82.14164 | 35893 ft | 426 kts | 351° |
| 2026-05-04 16:26 | 38.34703 | -82.14923 | 33406 ft | 427 kts | 351° |
| 2026-05-04 16:26 | 38.43540 | -82.15546 | 31240 ft | 426 kts | 351° |
| 2026-05-04 16:27 | 38.49373 | -82.15993 | 30206 ft | 413 kts | 347° |
| 2026-05-04 16:28 | 38.57715 | -82.17507 | 28607 ft | 395 kts | 345° |
| 2026-05-04 16:28 | 38.65724 | -82.19061 | 27057 ft | 383 kts | 345° |
| 2026-05-04 16:29 | 38.76299 | -82.21068 | 25075 ft | 396 kts | 346° |
| 2026-05-04 16:30 | 38.84420 | -82.22587 | 23588 ft | 388 kts | 346° |
| 2026-05-04 16:31 | 38.89719 | -82.23587 | 22455 ft | 382 kts | 346° |
| 2026-05-04 16:31 | 38.97482 | -82.25041 | 20920 ft | 370 kts | 346° |
| 2026-05-04 16:32 | 39.05036 | -82.26466 | 19444 ft | 363 kts | 346° |
| 2026-05-04 16:33 | 39.10033 | -82.27414 | 18486 ft | 363 kts | 346° |
| 2026-05-04 16:33 | 39.14990 | -82.28355 | 17412 ft | 363 kts | 346° |
| 2026-05-04 16:34 | 39.19972 | -82.29299 | 16408 ft | 361 kts | 346° |
| 2026-05-04 16:34 | 39.22486 | -82.29776 | 15899 ft | 360 kts | 346° |
| 2026-05-04 16:35 | 39.29839 | -82.31174 | 14460 ft | 354 kts | 346° |
| 2026-05-04 16:35 | 39.37055 | -82.32549 | 12989 ft | 345 kts | 346° |
| 2026-05-04 16:36 | 39.39417 | -82.33000 | 12528 ft | 341 kts | 346° |
| 2026-05-04 16:36 | 39.44073 | -82.33889 | 11583 ft | 334 kts | 346° |
| 2026-05-04 16:37 | 39.48632 | -82.34761 | 10776 ft | 326 kts | 346° |
| 2026-05-04 16:37 | 39.50800 | -82.35311 | 10644 ft | 309 kts | 336° |
| 2026-05-04 16:37 | 39.54613 | -82.37320 | 10408 ft | 285 kts | 331° |
| 2026-05-04 16:38 | 39.58153 | -82.39249 | 10183 ft | 268 kts | 331° |
| 2026-05-04 16:39 | 39.63241 | -82.42003 | 9516 ft | 264 kts | 331° |
| 2026-05-04 16:39 | 39.66638 | -82.43834 | 8917 ft | 263 kts | 331° |
| 2026-05-04 16:40 | 39.70007 | -82.45644 | 8333 ft | 261 kts | 330° |
| 2026-05-04 16:40 | 39.73329 | -82.47487 | 7742 ft | 256 kts | 324° |
| 2026-05-04 16:41 | 39.76154 | -82.50183 | 7203 ft | 250 kts | 315° |
| 2026-05-04 16:41 | 39.80260 | -82.54376 | 6371 ft | 250 kts | 316° |
| 2026-05-04 16:42 | 39.81164 | -82.55287 | 6169 ft | 251 kts | 316° |
| 2026-05-04 16:43 | 39.87113 | -82.61232 | 5284 ft | 237 kts | 316° |
| 2026-05-04 16:43 | 39.89659 | -82.63762 | 5072 ft | 223 kts | 316° |
| 2026-05-04 16:43 | 39.90923 | -82.64917 | 4864 ft | 227 kts | 329° |
| 2026-05-04 16:44 | 39.96903 | -82.68011 | 3706 ft | 228 kts | 301° |
| 2026-05-04 16:45 | 39.98321 | -82.71480 | 3171 ft | 204 kts | 268° |
| 2026-05-04 16:46 | 39.98803 | -82.76304 | 2475 ft | 173 kts | 275° |
| 2026-05-04 16:46 | 39.98734 | -82.79159 | 2158 ft | 149 kts | 262° |
| 2026-05-04 16:47 | 39.98849 | -82.81832 | 1754 ft | 152 kts | 268° |
| 2026-05-04 16:47 | 39.98935 | -82.83509 | 1505 ft | 149 kts | 268° |